createdAt,value
2018-03-18T00:00:33.806Z,43.70
2018-03-18T00:03:01.333Z,43.80
2018-03-18T00:05:28.969Z,44.60
2018-03-18T00:07:57.293Z,43.90
2018-03-18T00:10:24.819Z,43.90
2018-03-18T00:12:52.381Z,44.40
2018-03-18T00:15:20.773Z,43.90
2018-03-18T00:17:48.354Z,44.10
2018-03-18T00:20:15.893Z,44.10
2018-03-18T00:22:43.516Z,44.10
2018-03-18T00:25:11.070Z,44.20
2018-03-18T00:27:38.641Z,44.30
2018-03-18T00:30:06.939Z,44.50
2018-03-18T00:32:34.476Z,44.40
2018-03-18T00:35:02.818Z,44.40
2018-03-18T00:37:30.448Z,44.40
2018-03-18T00:39:58.040Z,44.40
2018-03-18T00:42:25.591Z,44.80
2018-03-18T00:44:53.271Z,44.50
2018-03-18T00:47:20.827Z,44.70
2018-03-18T00:49:48.535Z,44.70
2018-03-18T00:52:16.072Z,44.70
2018-03-18T00:54:43.622Z,44.60
2018-03-18T00:57:11.148Z,44.70
2018-03-18T00:59:38.706Z,44.80
2018-03-18T01:02:06.265Z,44.60
2018-03-18T01:04:33.848Z,44.80
2018-03-18T01:07:01.402Z,44.50
2018-03-18T01:09:28.967Z,44.30
2018-03-18T01:11:56.507Z,44.50
2018-03-18T01:14:24.046Z,44.40
2018-03-18T01:16:51.605Z,44.80
2018-03-18T01:19:19.926Z,44.70
2018-03-18T01:21:47.496Z,44.60
2018-03-18T01:24:15.050Z,44.60
2018-03-18T01:26:42.632Z,44.60
2018-03-18T01:29:10.167Z,44.30
2018-03-18T01:31:37.736Z,44.60
2018-03-18T01:34:05.279Z,44.50
2018-03-18T01:36:32.890Z,44.40
2018-03-18T01:39:01.271Z,44.50
2018-03-18T01:41:29.717Z,44.00
2018-03-18T01:43:57.299Z,44.00
2018-03-18T01:46:25.773Z,44.10
2018-03-18T01:48:53.401Z,44.10
2018-03-18T01:51:20.947Z,44.10
2018-03-18T01:53:48.514Z,44.00
2018-03-18T01:56:16.038Z,44.10
2018-03-18T01:58:43.615Z,43.90
2018-03-18T02:01:11.157Z,44.00
2018-03-18T02:03:39.481Z,43.80
2018-03-18T02:06:07.030Z,43.80
2018-03-18T02:08:34.594Z,43.70
2018-03-18T02:11:02.157Z,43.70
2018-03-18T02:13:29.789Z,43.60
2018-03-18T02:15:57.330Z,43.20
2018-03-18T02:18:25.625Z,43.10
2018-03-18T02:20:53.180Z,43.10
2018-03-18T02:23:20.714Z,43.10
2018-03-18T02:25:48.297Z,43.30
2018-03-18T02:28:15.855Z,43.80
2018-03-18T02:30:44.180Z,43.30
2018-03-18T02:33:12.506Z,43.40
2018-03-18T02:35:40.843Z,43.30
2018-03-18T02:38:08.374Z,43.20
2018-03-18T02:40:36.210Z,43.40
2018-03-18T02:43:03.788Z,43.30
2018-03-18T02:45:31.320Z,43.40
2018-03-18T02:47:58.863Z,43.80
2018-03-18T02:50:26.466Z,44.00
2018-03-18T02:52:54.051Z,43.80
2018-03-18T02:55:21.581Z,43.80
2018-03-18T02:57:49.884Z,44.00
2018-03-18T03:00:17.443Z,43.80
2018-03-18T03:02:44.995Z,43.90
2018-03-18T03:05:12.562Z,43.80
2018-03-18T03:07:40.103Z,44.10
2018-03-18T03:10:07.682Z,44.30
2018-03-18T03:12:35.274Z,44.30
2018-03-18T03:15:02.841Z,44.50
2018-03-18T03:17:30.366Z,44.50
2018-03-18T03:19:57.909Z,44.40
2018-03-18T03:22:25.469Z,44.60
2018-03-18T03:24:53.009Z,44.70
2018-03-18T03:27:21.338Z,44.80
2018-03-18T03:29:48.896Z,44.80
2018-03-18T03:32:16.477Z,44.80
2018-03-18T03:34:44.112Z,44.70
2018-03-18T03:37:11.664Z,45.20
2018-03-18T03:39:39.205Z,45.00
2018-03-18T03:42:06.789Z,45.10
2018-03-18T03:44:34.326Z,45.20
2018-03-18T03:47:01.909Z,45.00
2018-03-18T03:49:29.502Z,45.30
2018-03-18T03:51:57.029Z,45.50
2018-03-18T03:54:24.575Z,45.50
2018-03-18T03:56:52.110Z,45.30
2018-03-18T03:59:20.458Z,45.90
2018-03-18T04:01:48.007Z,45.90
2018-03-18T04:04:15.569Z,46.40
2018-03-18T04:06:43.103Z,46.50
2018-03-18T04:09:10.684Z,46.50
2018-03-18T04:11:38.238Z,46.00
2018-03-18T04:14:05.805Z,45.80
2018-03-18T04:16:33.376Z,45.80
2018-03-18T04:19:00.924Z,46.20
2018-03-18T04:21:28.493Z,46.40
2018-03-18T04:23:56.022Z,46.40
2018-03-18T04:26:23.591Z,46.40
2018-03-18T04:28:51.141Z,46.40
2018-03-18T04:31:18.689Z,46.40
2018-03-18T04:33:46.222Z,46.50
2018-03-18T04:36:13.785Z,46.60
2018-03-18T04:38:41.322Z,46.70
2018-03-18T04:41:08.956Z,47.60
2018-03-18T04:43:36.485Z,47.10
2018-03-18T04:46:04.793Z,47.20
2018-03-18T04:48:32.321Z,47.20
2018-03-18T04:51:00.643Z,47.50
2018-03-18T04:53:28.174Z,47.40
2018-03-18T04:55:55.861Z,47.40
2018-03-18T04:58:23.393Z,47.70
2018-03-18T05:00:50.921Z,47.60
2018-03-18T05:03:18.500Z,47.80
2018-03-18T05:05:46.821Z,47.90
2018-03-18T05:08:14.373Z,47.80
2018-03-18T05:10:41.907Z,47.80
2018-03-18T05:13:09.469Z,47.70
2018-03-18T05:15:37.017Z,47.70
2018-03-18T05:18:05.332Z,48.10
2018-03-18T05:20:32.868Z,48.00
2018-03-18T05:23:00.441Z,48.00
2018-03-18T05:25:27.987Z,47.90
2018-03-18T05:27:55.523Z,47.80
2018-03-18T05:30:23.851Z,47.60
2018-03-18T05:32:51.406Z,47.60
2018-03-18T05:35:18.971Z,47.90
2018-03-18T05:37:46.519Z,48.20
2018-03-18T05:40:14.084Z,47.60
2018-03-18T05:42:41.608Z,46.50
2018-03-18T05:45:09.926Z,44.20
2018-03-18T05:47:37.497Z,44.20
2018-03-18T05:50:05.083Z,44.10
2018-03-18T05:52:32.616Z,44.00
2018-03-18T05:55:00.170Z,43.10
2018-03-18T05:57:27.750Z,43.00
2018-03-18T05:59:55.312Z,42.30
2018-03-18T06:02:22.873Z,41.90
2018-03-18T06:04:50.420Z,42.20
2018-03-18T06:07:18.003Z,42.00
2018-03-18T06:09:45.554Z,41.60
2018-03-18T06:12:13.109Z,41.50
2018-03-18T06:14:40.647Z,41.10
2018-03-18T06:17:08.215Z,40.90
2018-03-18T06:19:35.748Z,40.60
2018-03-18T06:22:03.343Z,40.20
2018-03-18T06:24:30.883Z,40.00
2018-03-18T06:26:58.417Z,40.70
2018-03-18T06:29:26.029Z,40.40
2018-03-18T06:31:53.584Z,39.70
2018-03-18T06:34:21.179Z,40.50
2018-03-18T06:36:49.493Z,38.90
2018-03-18T06:39:17.052Z,38.90
2018-03-18T06:41:44.600Z,38.70
2018-03-18T06:44:12.172Z,39.10
2018-03-18T06:46:39.723Z,38.50
2018-03-18T06:49:07.296Z,37.60
2018-03-18T06:51:34.865Z,38.00
2018-03-18T06:54:02.411Z,38.10
2018-03-18T06:56:29.967Z,37.50
2018-03-18T06:58:57.495Z,37.00
2018-03-18T07:01:25.096Z,37.40
2018-03-18T07:03:52.641Z,37.20
2018-03-18T07:06:20.976Z,36.90
2018-03-18T07:08:48.518Z,36.80
2018-03-18T07:11:16.098Z,37.30
2018-03-18T07:13:43.675Z,35.90
2018-03-18T07:16:11.255Z,35.40
2018-03-18T07:18:39.553Z,36.80
2018-03-18T07:21:07.125Z,36.70
2018-03-18T07:23:34.679Z,36.10
2018-03-18T07:26:02.248Z,36.10
2018-03-18T07:28:29.842Z,35.80
2018-03-18T07:30:57.381Z,35.50
2018-03-18T07:33:24.944Z,35.80
2018-03-18T07:35:52.499Z,35.10
2018-03-18T07:38:20.061Z,34.90
2018-03-18T07:40:48.367Z,35.30
2018-03-18T07:43:15.942Z,35.20
2018-03-18T07:45:43.498Z,34.40
2018-03-18T07:48:11.030Z,33.90
2018-03-18T07:50:39.393Z,32.80
2018-03-18T07:53:06.944Z,32.70
2018-03-18T07:55:34.502Z,32.50
2018-03-18T07:58:02.033Z,32.70
2018-03-18T08:00:30.373Z,32.80
2018-03-18T08:02:57.918Z,32.70
2018-03-18T08:05:25.571Z,32.30
2018-03-18T08:07:53.128Z,32.30
2018-03-18T08:10:20.712Z,32.00
2018-03-18T08:12:48.255Z,30.90
2018-03-18T08:15:15.799Z,31.00
2018-03-18T08:17:43.405Z,30.30
2018-03-18T08:20:10.921Z,30.40
2018-03-18T08:22:38.515Z,30.80
2018-03-18T08:25:06.079Z,30.10
2018-03-18T08:27:33.622Z,30.50
2018-03-18T08:30:01.216Z,30.80
2018-03-18T08:32:28.759Z,30.40
2018-03-18T08:34:56.311Z,30.30
2018-03-18T08:37:23.866Z,30.20
2018-03-18T08:39:51.408Z,30.40
2018-03-18T08:42:29.736Z,30.50
2018-03-18T08:44:58.057Z,29.40
2018-03-18T08:47:25.623Z,29.40
2018-03-18T08:49:53.928Z,30.30
2018-03-18T08:52:21.564Z,30.30
2018-03-18T08:54:49.058Z,30.10
2018-03-18T08:57:16.622Z,30.20
2018-03-18T08:59:44.225Z,29.50
2018-03-18T09:02:11.790Z,28.00
2018-03-18T09:04:39.344Z,28.30
2018-03-18T09:07:06.894Z,28.70
2018-03-18T09:09:34.471Z,28.10
2018-03-18T09:12:02.018Z,27.90
2018-03-18T09:14:29.585Z,28.60
2018-03-18T09:16:57.113Z,28.20
2018-03-18T09:19:24.661Z,29.10
2018-03-18T09:21:52.198Z,28.00
2018-03-18T09:24:19.808Z,27.90
2018-03-18T09:26:47.347Z,27.80
2018-03-18T09:29:14.884Z,26.30
2018-03-18T09:31:42.456Z,26.40
2018-03-18T09:34:09.992Z,26.90
2018-03-18T09:36:37.568Z,26.80
2018-03-18T09:39:05.131Z,26.80
2018-03-18T09:41:32.682Z,26.60
2018-03-18T09:44:00.219Z,25.90
2018-03-18T09:46:27.782Z,26.10
2018-03-18T09:48:56.078Z,26.00
2018-03-18T09:51:23.617Z,25.70
2018-03-18T09:53:51.932Z,25.00
2018-03-18T09:56:19.473Z,24.90
2018-03-18T09:58:47.023Z,25.40
2018-03-18T10:01:15.313Z,26.10
2018-03-18T10:03:42.883Z,26.10
2018-03-18T10:06:10.407Z,25.90
2018-03-18T10:08:37.962Z,25.70
2018-03-18T10:11:05.512Z,24.90
2018-03-18T10:13:33.080Z,25.20
2018-03-18T10:16:00.621Z,25.00
2018-03-18T10:18:28.166Z,24.90
2018-03-18T10:20:55.822Z,25.70
2018-03-18T10:23:23.342Z,25.70
2018-03-18T10:25:51.663Z,25.60
2018-03-18T10:28:19.260Z,25.50
2018-03-18T10:30:46.822Z,24.80
2018-03-18T10:33:14.357Z,25.10
2018-03-18T10:35:42.691Z,24.50
2018-03-18T10:38:10.262Z,24.50
2018-03-18T10:40:37.808Z,24.80
2018-03-18T10:43:06.098Z,24.40
2018-03-18T10:45:33.687Z,24.40
2018-03-18T10:48:01.226Z,25.20
2018-03-18T10:50:28.766Z,24.70
2018-03-18T10:52:57.079Z,24.10
2018-03-18T10:55:24.627Z,24.10
2018-03-18T10:57:52.195Z,24.70
2018-03-18T11:00:20.473Z,24.80
2018-03-18T11:02:50.649Z,25.50
2018-03-18T11:05:19.276Z,24.80
2018-03-18T11:07:46.810Z,24.60
2018-03-18T11:10:14.399Z,24.80
2018-03-18T11:12:41.941Z,24.40
2018-03-18T11:15:09.593Z,24.80
2018-03-18T11:17:37.094Z,24.80
2018-03-18T11:20:04.741Z,24.40
2018-03-18T11:22:32.272Z,24.40
2018-03-18T11:24:59.822Z,24.30
2018-03-18T11:27:28.131Z,23.60
2018-03-18T11:29:55.702Z,23.50
2018-03-18T11:32:23.264Z,23.10
2018-03-18T11:34:50.826Z,23.40
2018-03-18T11:37:18.398Z,24.00
2018-03-18T11:39:46.019Z,23.50
2018-03-18T11:42:13.562Z,23.10
2018-03-18T11:44:41.878Z,24.00
2018-03-18T11:47:09.472Z,23.90
2018-03-18T11:49:37.092Z,23.80
2018-03-18T11:52:04.664Z,23.70
2018-03-18T11:54:32.229Z,23.60
2018-03-18T11:56:59.812Z,24.00
2018-03-18T11:59:28.145Z,24.60
2018-03-18T12:01:55.726Z,24.40
2018-03-18T12:04:23.313Z,24.60
2018-03-18T12:06:51.923Z,24.80
2018-03-18T12:09:20.366Z,24.50
2018-03-18T12:11:47.932Z,24.60
2018-03-18T12:14:15.534Z,24.40
2018-03-18T12:16:43.882Z,24.30
2018-03-18T12:19:11.469Z,24.30
2018-03-18T12:21:39.005Z,23.70
2018-03-18T12:24:06.567Z,24.40
2018-03-18T12:26:34.138Z,23.70
2018-03-18T12:29:01.759Z,23.70
2018-03-18T12:31:29.345Z,23.90
2018-03-18T12:33:56.974Z,24.00
2018-03-18T12:36:24.542Z,23.90
2018-03-18T12:38:52.078Z,24.20
2018-03-18T12:41:19.832Z,24.40
2018-03-18T12:43:47.430Z,24.60
2018-03-18T12:46:15.003Z,24.40
2018-03-18T12:48:42.594Z,23.80
2018-03-18T12:51:10.153Z,24.40
2018-03-18T12:53:37.704Z,23.30
2018-03-18T12:56:05.251Z,23.90
2018-03-18T12:58:32.941Z,23.20
2018-03-18T13:01:01.367Z,23.30
2018-03-18T13:03:28.921Z,23.30
2018-03-18T13:05:56.631Z,22.90
2018-03-18T13:08:24.992Z,23.40
2018-03-18T13:10:52.571Z,23.40
2018-03-18T13:13:20.130Z,23.60
2018-03-18T13:15:47.804Z,23.30
2018-03-18T13:18:16.148Z,22.30
2018-03-18T13:20:44.467Z,22.10
2018-03-18T13:23:12.795Z,22.20
2018-03-18T13:25:40.333Z,22.20
2018-03-18T13:28:07.897Z,21.80
2018-03-18T13:30:35.447Z,22.50
2018-03-18T13:33:03.009Z,22.70
2018-03-18T13:35:30.554Z,22.80
2018-03-18T13:37:58.875Z,22.60
2018-03-18T13:40:27.310Z,22.60
2018-03-18T13:42:54.927Z,22.50
2018-03-18T13:45:22.484Z,22.70
2018-03-18T13:47:50.028Z,21.80
2018-03-18T13:50:17.621Z,21.80
2018-03-18T13:52:45.960Z,22.40
2018-03-18T13:55:13.501Z,22.30
2018-03-18T13:57:41.084Z,22.20
2018-03-18T14:00:08.709Z,22.90
2018-03-18T14:02:36.297Z,23.40
2018-03-18T14:05:03.859Z,23.70
2018-03-18T14:07:31.448Z,23.90
2018-03-18T14:09:59.034Z,23.80
2018-03-18T14:12:26.565Z,22.60
2018-03-18T14:14:54.223Z,22.20
2018-03-18T14:17:21.785Z,21.70
2018-03-18T14:19:49.331Z,21.10
2018-03-18T14:22:16.926Z,21.50
2018-03-18T14:24:44.490Z,22.60
2018-03-18T14:27:12.061Z,21.80
2018-03-18T14:29:39.579Z,21.90
2018-03-18T14:32:07.156Z,22.50
2018-03-18T14:34:34.728Z,23.40
2018-03-18T14:37:02.333Z,25.40
2018-03-18T14:39:30.717Z,25.00
2018-03-18T14:41:59.037Z,23.50
2018-03-18T14:44:26.615Z,23.50
2018-03-18T14:46:54.153Z,24.20
2018-03-18T14:49:21.729Z,25.10
2018-03-18T14:51:49.289Z,25.30
2018-03-18T14:54:17.609Z,25.30
2018-03-18T14:56:45.914Z,25.60
2018-03-18T14:59:13.466Z,25.50
2018-03-18T15:01:41.011Z,25.20
2018-03-18T15:04:09.337Z,25.00
2018-03-18T15:06:36.884Z,25.00
2018-03-18T15:09:04.441Z,24.10
2018-03-18T15:11:31.995Z,23.20
2018-03-18T15:13:59.522Z,22.90
2018-03-18T15:16:27.854Z,24.70
2018-03-18T15:18:55.414Z,24.60
2018-03-18T15:21:23.010Z,24.80
2018-03-18T15:23:51.325Z,25.70
2018-03-18T15:26:18.877Z,25.70
2018-03-18T15:28:46.419Z,25.70
2018-03-18T15:31:14.025Z,25.80
2018-03-18T15:33:41.553Z,25.70
2018-03-18T15:36:09.113Z,25.40
2018-03-18T15:38:36.691Z,25.20
2018-03-18T15:41:04.295Z,25.80
2018-03-18T15:43:31.848Z,25.50
2018-03-18T15:45:59.385Z,24.40
2018-03-18T15:48:27.141Z,23.70
2018-03-18T15:50:54.744Z,24.10
2018-03-18T15:53:22.363Z,24.20
2018-03-18T15:55:49.893Z,24.20
2018-03-18T15:58:17.461Z,24.30
2018-03-18T16:00:44.992Z,24.30
2018-03-18T16:03:12.534Z,24.70
2018-03-18T16:05:40.093Z,23.50
2018-03-18T16:08:07.709Z,23.60
2018-03-18T16:10:35.248Z,23.10
2018-03-18T16:13:02.769Z,22.60
2018-03-18T16:15:30.321Z,22.50
2018-03-18T16:17:57.963Z,22.40
2018-03-18T16:20:25.522Z,22.90
2018-03-18T16:22:53.733Z,23.50
2018-03-18T16:25:21.326Z,23.90
2018-03-18T16:27:49.667Z,25.00
2018-03-18T16:30:28.953Z,25.00
2018-03-18T16:32:56.453Z,24.50
2018-03-18T16:35:24.038Z,24.40
2018-03-18T16:37:51.652Z,23.90
2018-03-18T16:40:19.220Z,24.10
2018-03-18T16:42:46.785Z,23.80
2018-03-18T16:45:14.440Z,24.20
2018-03-18T16:47:42.038Z,24.20
2018-03-18T16:50:10.361Z,24.50
2018-03-18T16:52:38.691Z,24.70
2018-03-18T16:55:06.229Z,24.70
2018-03-18T16:57:33.790Z,24.80
2018-03-18T17:00:01.360Z,25.20
2018-03-18T17:02:28.929Z,25.60
2018-03-18T17:04:56.481Z,25.40
2018-03-18T17:07:24.046Z,25.50
2018-03-18T17:09:52.355Z,25.70
2018-03-18T17:12:20.689Z,25.70
2018-03-18T17:14:48.303Z,25.70
2018-03-18T17:17:16.629Z,25.90
2018-03-18T17:19:44.203Z,25.80
2018-03-18T17:22:11.775Z,26.00
2018-03-18T17:24:39.363Z,26.20
2018-03-18T17:27:06.891Z,26.60
2018-03-18T17:29:36.310Z,27.10
2018-03-18T17:32:03.989Z,26.90
2018-03-18T17:34:32.330Z,27.00
2018-03-18T17:37:00.137Z,27.00
2018-03-18T17:39:27.755Z,27.10
2018-03-18T17:41:56.071Z,27.20
2018-03-18T17:44:36.239Z,27.50
2018-03-18T17:47:16.508Z,27.00
2018-03-18T17:49:56.149Z,27.00
2018-03-18T17:52:36.365Z,27.40
2018-03-18T17:58:04.723Z,27.40
2018-03-18T18:00:32.359Z,27.90
2018-03-18T18:03:00.795Z,27.90
2018-03-18T18:05:28.342Z,27.80
2018-03-18T18:07:55.911Z,27.80
2018-03-18T18:10:23.626Z,28.10
2018-03-18T18:12:51.239Z,27.90
2018-03-18T18:15:21.211Z,28.20
2018-03-18T18:17:49.548Z,28.30
2018-03-18T18:20:17.181Z,28.30
2018-03-18T18:22:44.737Z,28.30
2018-03-18T18:25:12.566Z,28.60
2018-03-18T18:27:40.093Z,28.80
2018-03-18T18:30:07.762Z,28.90
2018-03-18T18:32:36.462Z,29.00
2018-03-18T18:37:59.107Z,28.90
2018-03-18T18:40:26.690Z,29.00
2018-03-18T18:42:54.254Z,28.90
2018-03-18T18:45:21.907Z,28.80
2018-03-18T18:47:49.454Z,29.20
2018-03-18T18:50:17.022Z,29.20
2018-03-18T18:52:44.690Z,29.10
2018-03-18T18:55:12.262Z,29.10
2018-03-18T18:57:40.603Z,29.20
2018-03-18T19:00:08.290Z,29.20
2018-03-18T19:02:36.004Z,29.30
2018-03-18T19:05:03.636Z,29.50
2018-03-18T19:07:31.179Z,29.10
2018-03-18T19:09:58.728Z,28.80
2018-03-18T19:12:26.277Z,29.10
2018-03-18T19:14:53.815Z,29.40
2018-03-18T19:17:21.425Z,29.50
2018-03-18T19:19:48.994Z,29.70
2018-03-18T19:22:16.554Z,29.60
2018-03-18T19:24:44.139Z,29.90
2018-03-18T19:27:11.730Z,30.00
2018-03-18T19:29:39.310Z,30.10
2018-03-18T19:32:06.910Z,30.60
2018-03-18T19:34:34.561Z,30.60
2018-03-18T19:37:02.129Z,30.80
2018-03-18T19:39:29.707Z,30.80
2018-03-18T19:41:57.295Z,31.30
2018-03-18T19:44:24.840Z,31.70
2018-03-18T19:46:53.169Z,32.30
2018-03-18T19:49:22.065Z,32.20
2018-03-18T19:51:49.679Z,32.80
2018-03-18T19:54:17.199Z,33.00
2018-03-18T19:56:44.827Z,33.20
2018-03-18T19:59:12.427Z,33.40
2018-03-18T20:01:40.044Z,33.60
2018-03-18T20:04:07.662Z,33.60
2018-03-18T20:06:35.261Z,33.90
2018-03-18T20:09:02.854Z,33.70
2018-03-18T20:11:30.425Z,33.90
2018-03-18T20:13:57.977Z,33.90
2018-03-18T20:16:26.398Z,33.90
2018-03-18T20:18:54.940Z,33.90
2018-03-18T20:21:22.488Z,33.90
2018-03-18T20:23:50.092Z,33.50
2018-03-18T20:26:17.634Z,33.90
2018-03-18T20:28:45.255Z,33.90
2018-03-18T20:31:12.843Z,33.60
2018-03-18T20:33:40.432Z,33.80
2018-03-18T20:36:07.965Z,33.80
2018-03-18T20:38:35.558Z,34.20
2018-03-18T20:41:03.423Z,34.00
2018-03-18T20:46:33.615Z,35.10
2018-03-18T20:49:01.237Z,35.30
2018-03-18T20:51:28.912Z,35.70
2018-03-18T20:53:58.045Z,35.80
2018-03-18T20:56:26.438Z,36.20
2018-03-18T20:58:54.005Z,36.80
2018-03-18T21:01:21.617Z,36.20
2018-03-18T21:03:49.178Z,36.40
2018-03-18T21:06:17.501Z,36.40
2018-03-18T21:08:45.074Z,36.40
2018-03-18T21:11:12.690Z,36.30
2018-03-18T21:13:40.289Z,36.60
2018-03-18T21:16:07.839Z,36.70
2018-03-18T21:18:35.412Z,36.90
2018-03-18T21:21:02.982Z,36.70
2018-03-18T21:23:30.562Z,36.90
2018-03-18T21:25:58.105Z,37.10
2018-03-18T21:28:25.693Z,37.30
2018-03-18T21:30:54.025Z,37.30
2018-03-18T21:33:21.609Z,37.20
2018-03-18T21:35:49.186Z,37.40
2018-03-18T21:38:16.732Z,38.30
2018-03-18T21:40:44.369Z,38.30
2018-03-18T21:43:11.965Z,37.90
2018-03-18T21:45:39.533Z,37.90
2018-03-18T21:48:07.103Z,38.10
2018-03-18T21:50:35.428Z,38.40
2018-03-18T21:53:02.963Z,38.30
2018-03-18T21:55:30.524Z,38.40
2018-03-18T21:57:58.098Z,38.30
2018-03-18T22:00:25.717Z,38.30
2018-03-18T22:02:53.241Z,38.50
2018-03-18T22:05:20.792Z,39.40
2018-03-18T22:07:49.112Z,38.70
2018-03-18T22:10:17.454Z,38.90
2018-03-18T22:12:45.010Z,38.90
2018-03-18T22:15:12.563Z,38.90
2018-03-18T22:17:40.154Z,39.10
2018-03-18T22:20:07.757Z,39.30
2018-03-18T22:22:35.307Z,39.40
2018-03-18T22:25:02.873Z,39.50
2018-03-18T22:27:30.447Z,39.70
2018-03-18T22:29:57.979Z,39.70
2018-03-18T22:32:26.345Z,40.00
2018-03-18T22:34:53.922Z,40.00
2018-03-18T22:37:22.232Z,40.20
2018-03-18T22:39:49.898Z,40.20
2018-03-18T22:42:17.423Z,40.30
2018-03-18T22:44:45.777Z,40.20
2018-03-18T22:47:13.334Z,40.20
2018-03-18T22:49:40.919Z,40.30
2018-03-18T22:52:09.235Z,40.80
2018-03-18T22:54:36.796Z,40.70
2018-03-18T22:57:04.341Z,40.70
2018-03-18T22:59:31.915Z,40.80
2018-03-18T23:01:59.528Z,40.80
2018-03-18T23:04:27.137Z,40.80
2018-03-18T23:06:54.702Z,40.90
2018-03-18T23:09:22.263Z,40.80
2018-03-18T23:11:49.817Z,41.00
2018-03-18T23:14:17.378Z,41.00
2018-03-18T23:16:44.914Z,40.90
2018-03-18T23:19:12.463Z,41.20
2018-03-18T23:21:40.775Z,41.00
2018-03-18T23:24:08.599Z,41.00
2018-03-18T23:26:36.918Z,41.20
2018-03-18T23:29:04.448Z,41.20
2018-03-18T23:31:32.787Z,41.30
2018-03-18T23:34:00.332Z,41.30
2018-03-18T23:36:28.017Z,41.60
2018-03-18T23:38:55.576Z,41.90
2018-03-18T23:41:23.141Z,41.60
2018-03-18T23:43:50.696Z,41.30
2018-03-18T23:46:18.257Z,41.40
2018-03-18T23:48:45.788Z,41.10
2018-03-18T23:51:13.339Z,41.20
2018-03-18T23:53:40.893Z,41.10
2018-03-18T23:56:08.498Z,41.20
2018-03-18T23:58:36.054Z,41.40
